Time;durP1;ratioP1;P1;durP2;ratioP2;P2;SDS_P1;SDS_P2;PMS_P1;PMS_P2;Temp;Humidity;BMP_temperature;BMP_pressure;BME280_temperature;BME280_humidity;BME280_pressure;Samples;Min_cycle;Max_cycle;Signal;HPM_P1;HPM_P2
2023/08/07 00:01:03;;;;;;;1.33;0.60;;;18.10;72.10;;;;;;4854205;29;20488;-85
2023/08/07 00:03:31;;;;;;;0.77;0.70;;;18.00;72.20;;;;;;4857380;29;20829;-85
2023/08/07 00:05:59;;;;;;;1.10;0.73;;;17.90;72.60;;;;;;4857694;29;20543;-84
2023/08/07 00:08:28;;;;;;;1.00;0.83;;;18.00;72.80;;;;;;4857141;29;20465;-85
2023/08/07 00:11:05;;;;;;;0.70;0.70;;;18.00;72.70;;;;;;4859135;29;20512;-85
2023/08/07 00:13:34;;;;;;;1.93;1.40;;;18.10;72.40;;;;;;4856629;29;20564;-84
2023/08/07 00:16:03;;;;;;;2.20;1.10;;;18.00;72.70;;;;;;4857271;29;20540;-85
2023/08/07 00:18:32;;;;;;;0.90;0.80;;;18.10;72.70;;;;;;4857509;29;20451;-85
2023/08/07 00:21:00;;;;;;;1.80;0.93;;;18.00;72.70;;;;;;4853079;29;20491;-85
2023/08/07 00:23:29;;;;;;;0.67;0.67;;;18.00;72.80;;;;;;4857278;29;20940;-84
2023/08/07 00:25:57;;;;;;;2.13;1.00;;;17.90;73.10;;;;;;4850720;29;20559;-85
2023/08/07 00:28:25;;;;;;;0.77;0.70;;;18.00;72.70;;;;;;4856615;29;20465;-85
2023/08/07 00:30:53;;;;;;;1.90;0.97;;;18.00;73.00;;;;;;4857869;29;20468;-84
2023/08/07 00:33:24;;;;;;;1.27;1.17;;;18.10;72.50;;;;;;4858049;29;20464;-84
2023/08/07 00:35:52;;;;;;;2.40;0.77;;;18.10;72.40;;;;;;4856396;29;20475;-84
2023/08/07 00:38:20;;;;;;;0.67;0.67;;;18.10;72.30;;;;;;4853774;29;20472;-87
2023/08/07 00:40:48;;;;;;;0.80;0.80;;;18.10;72.20;;;;;;4857436;29;20532;-85
2023/08/07 00:43:16;;;;;;;0.77;0.77;;;18.00;72.00;;;;;;4857429;29;20460;-84
2023/08/07 00:45:48;;;;;;;1.80;1.07;;;18.00;72.00;;;;;;4856686;29;20468;-84
2023/08/07 00:48:17;;;;;;;0.90;0.80;;;18.10;71.90;;;;;;4856606;29;20488;-85
2023/08/07 00:50:50;;;;;;;1.53;0.90;;;18.10;71.50;;;;;;4868392;29;20468;-86
2023/08/07 00:53:18;;;;;;;0.80;0.80;;;18.10;71.70;;;;;;4857192;29;20979;-84
2023/08/07 00:55:47;;;;;;;1.00;0.73;;;18.00;71.90;;;;;;4857761;29;20460;-84
2023/08/07 00:58:15;;;;;;;2.60;1.00;;;18.10;71.60;;;;;;4853733;29;20468;-84
2023/08/07 01:00:44;;;;;;;1.10;1.00;;;18.10;71.20;;;;;;4858390;29;21044;-84
2023/08/07 01:03:13;;;;;;;1.07;0.97;;;18.20;71.10;;;;;;4859827;29;20478;-85
2023/08/07 01:05:44;;;;;;;1.50;0.87;;;18.10;71.20;;;;;;4875623;29;20464;-85
2023/08/07 01:08:14;;;;;;;2.07;1.10;;;18.10;71.00;;;;;;4859880;29;20472;-84
2023/08/07 01:10:54;;;;;;;2.80;1.10;;;18.10;71.00;;;;;;4861195;29;20475;-84
2023/08/07 01:13:29;;;;;;;1.03;0.90;;;18.10;71.00;;;;;;4859612;29;20464;-84
2023/08/07 01:16:07;;;;;;;1.07;0.97;;;18.10;71.30;;;;;;4859534;29;20470;-86
2023/08/07 01:18:35;;;;;;;1.90;1.30;;;18.10;71.10;;;;;;4873347;29;20460;-86
2023/08/07 01:21:04;;;;;;;1.50;1.00;;;18.10;70.90;;;;;;4860084;29;20480;-87
2023/08/07 01:23:35;;;;;;;1.60;0.70;;;18.20;70.70;;;;;;4855435;29;20471;-84
2023/08/07 01:26:05;;;;;;;2.20;0.90;;;18.20;70.60;;;;;;4858485;29;21109;-84
2023/08/07 01:28:38;;;;;;;1.80;1.40;;;18.20;70.30;;;;;;4856980;29;20471;-85
2023/08/07 01:31:14;;;;;;;0.90;0.80;;;18.30;70.10;;;;;;4860922;29;20499;-85
2023/08/07 01:33:54;;;;;;;1.83;0.90;;;18.30;70.00;;;;;;4860313;29;20460;-84
2023/08/07 01:36:24;;;;;;;1.97;1.20;;;18.30;69.60;;;;;;4859223;29;20528;-85
2023/08/07 01:38:55;;;;;;;1.07;0.97;;;18.40;69.90;;;;;;4859832;29;20468;-84
2023/08/07 01:41:23;;;;;;;1.47;1.03;;;18.30;69.70;;;;;;4858652;29;21027;-84
2023/08/07 01:43:52;;;;;;;1.23;1.07;;;18.30;69.80;;;;;;4859778;29;20528;-84
2023/08/07 01:46:21;;;;;;;1.43;1.13;;;18.30;69.90;;;;;;4865113;29;20469;-84
2023/08/07 01:48:49;;;;;;;2.33;1.00;;;18.30;70.00;;;;;;4867182;29;20456;-84
2023/08/07 01:51:17;;;;;;;0.83;0.83;;;18.40;69.90;;;;;;4860435;29;20472;-84
2023/08/07 01:53:47;;;;;;;2.07;1.20;;;18.30;70.00;;;;;;4860020;29;20460;-84
2023/08/07 01:56:17;;;;;;;1.17;0.90;;;18.40;69.80;;;;;;4859890;29;20468;-84
2023/08/07 01:58:45;;;;;;;1.20;0.80;;;18.30;70.10;;;;;;4858206;29;20485;-86
2023/08/07 02:01:13;;;;;;;1.63;1.23;;;18.30;69.90;;;;;;4857934;29;20550;-86
2023/08/07 02:03:41;;;;;;;1.33;1.00;;;18.30;70.20;;;;;;4859971;29;20456;-84
2023/08/07 02:06:10;;;;;;;1.23;1.13;;;18.30;70.00;;;;;;4865181;29;20468;-84
2023/08/07 02:08:38;;;;;;;1.03;1.00;;;18.30;70.10;;;;;;4858848;29;20849;-85
2023/08/07 02:11:06;;;;;;;1.47;1.10;;;18.20;70.40;;;;;;4858655;29;20487;-84
2023/08/07 02:13:36;;;;;;;1.07;0.97;;;18.10;70.50;;;;;;4859251;29;20948;-84
2023/08/07 02:16:04;;;;;;;1.00;0.90;;;18.10;70.60;;;;;;4858158;29;20476;-84
2023/08/07 02:18:32;;;;;;;2.00;0.93;;;18.10;70.60;;;;;;4858572;29;20817;-86
2023/08/07 02:21:01;;;;;;;2.40;1.00;;;18.00;70.80;;;;;;4860125;29;20468;-84
2023/08/07 02:23:29;;;;;;;1.23;1.13;;;18.00;70.90;;;;;;4858728;29;20541;-84
2023/08/07 02:25:57;;;;;;;1.20;1.10;;;18.00;71.00;;;;;;4859193;29;20525;-85
2023/08/07 02:28:25;;;;;;;1.80;1.00;;;18.10;71.00;;;;;;4858437;29;20548;-85
2023/08/07 02:30:55;;;;;;;1.70;1.27;;;18.10;70.90;;;;;;4857683;29;20483;-84
2023/08/07 02:33:23;;;;;;;0.80;0.80;;;18.20;70.90;;;;;;4866205;29;20468;-84
2023/08/07 02:35:51;;;;;;;1.03;0.80;;;18.20;70.80;;;;;;4859965;29;20464;-85
2023/08/07 02:38:21;;;;;;;0.70;0.70;;;18.10;70.60;;;;;;4858463;29;20999;-85
2023/08/07 02:40:49;;;;;;;0.73;0.73;;;18.00;70.70;;;;;;4859276;29;20551;-84
2023/08/07 02:43:17;;;;;;;1.00;0.90;;;18.00;70.80;;;;;;4859363;29;20480;-84
2023/08/07 02:45:46;;;;;;;1.90;1.10;;;18.00;70.80;;;;;;4859264;29;20523;-85
2023/08/07 02:48:17;;;;;;;1.20;0.93;;;18.00;70.90;;;;;;4857338;29;20472;-84
2023/08/07 02:50:47;;;;;;;1.13;0.90;;;18.00;70.40;;;;;;4872072;29;20469;-84
2023/08/07 02:53:15;;;;;;;1.30;1.20;;;18.00;70.80;;;;;;4858180;29;20464;-84
2023/08/07 02:55:44;;;;;;;1.03;0.97;;;18.00;70.90;;;;;;4858432;29;20464;-84
2023/08/07 02:58:12;;;;;;;0.83;0.83;;;17.90;70.90;;;;;;4857783;29;20461;-84
2023/08/07 03:00:41;;;;;;;0.90;0.90;;;17.90;70.90;;;;;;4869310;29;20468;-85
2023/08/07 03:03:09;;;;;;;1.70;1.07;;;18.00;70.70;;;;;;4873516;29;20520;-85
2023/08/07 03:05:38;;;;;;;1.03;0.73;;;18.00;70.60;;;;;;4858927;29;20468;-84
2023/08/07 03:08:06;;;;;;;1.23;1.07;;;18.00;70.70;;;;;;4857919;29;20452;-84
2023/08/07 03:10:35;;;;;;;1.00;1.00;;;18.00;70.40;;;;;;4866052;29;20468;-85
2023/08/07 03:13:03;;;;;;;1.77;1.20;;;18.00;70.40;;;;;;4856123;29;20460;-85
2023/08/07 03:15:31;;;;;;;0.83;0.83;;;18.00;69.80;;;;;;4858203;29;20476;-84
2023/08/07 03:17:59;;;;;;;1.03;1.00;;;18.10;69.20;;;;;;4858952;29;20528;-85
2023/08/07 03:20:27;;;;;;;1.00;0.90;;;18.10;68.70;;;;;;4856464;29;20456;-85
2023/08/07 03:22:57;;;;;;;0.83;0.83;;;18.10;68.80;;;;;;4856586;29;20488;-87
2023/08/07 03:25:25;;;;;;;1.53;1.30;;;18.10;68.50;;;;;;4857787;29;20551;-85
2023/08/07 03:27:53;;;;;;;2.03;1.10;;;18.20;68.70;;;;;;4856663;29;21020;-84
2023/08/07 03:30:22;;;;;;;2.87;1.00;;;18.20;68.30;;;;;;4858592;29;20472;-85
2023/08/07 03:32:50;;;;;;;1.50;1.40;;;18.30;67.70;;;;;;4872839;29;20464;-85
2023/08/07 03:35:18;;;;;;;2.23;1.43;;;18.30;67.80;;;;;;4866173;29;20503;-85
2023/08/07 03:37:47;;;;;;;2.40;1.00;;;18.30;67.70;;;;;;4856046;29;20998;-84
2023/08/07 03:40:16;;;;;;;2.90;1.30;;;18.30;67.60;;;;;;4859560;29;20492;-84
2023/08/07 03:42:44;;;;;;;1.17;1.07;;;18.30;67.70;;;;;;4855545;29;20843;-84
2023/08/07 03:45:13;;;;;;;1.30;1.23;;;18.30;67.50;;;;;;4864482;29;20465;-84
2023/08/07 03:47:41;;;;;;;1.43;1.00;;;18.30;67.80;;;;;;4857698;29;20456;-84
2023/08/07 03:50:09;;;;;;;0.87;0.87;;;18.30;67.60;;;;;;4872182;29;20492;-84
2023/08/07 03:52:37;;;;;;;1.30;1.03;;;18.40;67.70;;;;;;4870209;29;20962;-86
2023/08/07 03:55:07;;;;;;;2.37;2.13;;;18.40;67.50;;;;;;4869210;29;20952;-84
2023/08/07 03:57:36;;;;;;;1.20;0.93;;;18.50;66.80;;;;;;4857699;29;20490;-84
2023/08/07 04:00:06;;;;;;;1.37;1.10;;;18.50;66.80;;;;;;4856962;29;20529;-87
2023/08/07 04:02:40;;;;;;;2.13;1.47;;;18.50;66.80;;;;;;4853605;29;20483;-84
2023/08/07 04:05:10;;;;;;;4.03;1.60;;;18.40;66.90;;;;;;4857058;29;20468;-84
2023/08/07 04:07:39;;;;;;;4.43;1.20;;;18.40;66.50;;;;;;4855431;29;20460;-85
2023/08/07 04:10:07;;;;;;;1.00;0.90;;;18.40;66.80;;;;;;4858663;29;20464;-85
2023/08/07 04:12:37;;;;;;;2.20;1.30;;;18.40;66.90;;;;;;4870882;29;20854;-84
2023/08/07 04:15:07;;;;;;;0.90;0.90;;;18.50;66.50;;;;;;4857243;29;20460;-84
2023/08/07 04:17:36;;;;;;;1.33;1.23;;;18.40;66.60;;;;;;4856470;29;20468;-84
2023/08/07 04:20:05;;;;;;;1.00;0.90;;;18.50;66.80;;;;;;4856874;29;20472;-84
2023/08/07 04:22:33;;;;;;;0.80;0.80;;;18.60;66.40;;;;;;4871537;29;20941;-84
2023/08/07 04:25:02;;;;;;;2.30;2.03;;;18.70;66.00;;;;;;4858092;29;20456;-85
2023/08/07 04:27:30;;;;;;;1.53;1.43;;;18.70;66.00;;;;;;4855526;29;20484;-85
2023/08/07 04:29:59;;;;;;;0.80;0.80;;;18.60;66.50;;;;;;4854836;29;20808;-84
2023/08/07 04:32:28;;;;;;;1.37;1.00;;;18.60;65.70;;;;;;4855181;29;20468;-85
2023/08/07 04:34:56;;;;;;;1.53;0.90;;;18.50;66.20;;;;;;4858386;29;20503;-84
2023/08/07 04:37:24;;;;;;;1.73;1.30;;;18.50;66.10;;;;;;4861531;29;20474;-84
2023/08/07 04:39:54;;;;;;;2.60;1.37;;;18.40;66.60;;;;;;4860985;29;20456;-84
2023/08/07 04:42:22;;;;;;;1.77;1.07;;;18.40;66.20;;;;;;4857647;29;20459;-84
2023/08/07 04:44:50;;;;;;;2.30;1.07;;;18.40;66.20;;;;;;4861114;29;20523;-86
2023/08/07 04:47:20;;;;;;;1.53;1.33;;;18.40;66.10;;;;;;4860442;29;20479;-84
2023/08/07 04:49:48;;;;;;;1.67;1.57;;;18.40;65.90;;;;;;4861497;29;20480;-84
2023/08/07 04:52:16;;;;;;;1.33;1.23;;;18.40;66.20;;;;;;4859687;29;20476;-85
2023/08/07 04:54:53;;;;;;;2.40;1.20;;;18.30;66.00;;;;;;4860054;29;20532;-84
2023/08/07 04:57:21;;;;;;;1.17;1.03;;;18.30;66.00;;;;;;4859892;29;20467;-85
2023/08/07 04:59:50;;;;;;;1.50;1.40;;;18.20;66.10;;;;;;4861219;29;20520;-85
2023/08/07 05:02:20;;;;;;;2.07;1.30;;;18.20;66.40;;;;;;4858689;29;20468;-84
2023/08/07 05:04:48;;;;;;;1.20;0.90;;;18.20;66.20;;;;;;4861320;29;20551;-85
2023/08/07 05:07:16;;;;;;;1.27;1.17;;;18.30;66.20;;;;;;4858850;29;20532;-85
2023/08/07 05:09:44;;;;;;;1.27;1.17;;;18.20;66.20;;;;;;4857976;29;20467;-84
2023/08/07 05:12:12;;;;;;;1.30;1.20;;;18.10;66.60;;;;;;4859950;29;20918;-86
2023/08/07 05:14:40;;;;;;;2.20;1.10;;;18.10;66.90;;;;;;4860960;29;20455;-84
2023/08/07 05:17:09;;;;;;;1.30;1.20;;;18.10;66.90;;;;;;4858501;29;20475;-84
2023/08/07 05:19:38;;;;;;;1.13;1.00;;;18.20;66.70;;;;;;4855505;29;20825;-84
2023/08/07 05:22:06;;;;;;;1.37;1.27;;;18.10;67.20;;;;;;4857828;29;20459;-83
2023/08/07 05:24:38;;;;;;;2.07;1.43;;;18.10;67.40;;;;;;4852055;29;21052;-84
2023/08/07 05:27:09;;;;;;;3.13;1.20;;;18.10;67.40;;;;;;4856292;29;20503;-84
2023/08/07 05:29:43;;;;;;;2.30;1.10;;;18.20;67.30;;;;;;4858791;29;20459;-84
2023/08/07 05:32:12;;;;;;;4.20;1.77;;;18.20;67.10;;;;;;4857812;29;20459;-84
2023/08/07 05:34:41;;;;;;;1.43;0.93;;;18.20;67.20;;;;;;4857918;29;20464;-84
2023/08/07 05:37:09;;;;;;;1.53;1.43;;;18.10;67.30;;;;;;4856417;29;20518;-84
2023/08/07 05:39:38;;;;;;;2.67;1.13;;;18.20;67.40;;;;;;4853966;29;20516;-84
2023/08/07 05:42:07;;;;;;;1.57;1.47;;;18.20;67.40;;;;;;4859855;29;20496;-84
2023/08/07 05:44:38;;;;;;;1.20;1.10;;;18.10;67.30;;;;;;4858449;29;20578;-83
2023/08/07 05:47:08;;;;;;;1.97;1.10;;;18.00;67.80;;;;;;4858682;29;20880;-83
2023/08/07 05:49:36;;;;;;;1.73;1.27;;;18.00;67.70;;;;;;4856634;29;20516;-84
2023/08/07 05:52:07;;;;;;;1.50;1.40;;;18.00;67.70;;;;;;4859074;29;20476;-85
2023/08/07 05:54:35;;;;;;;1.60;1.17;;;18.00;67.90;;;;;;4860257;29;20457;-84
2023/08/07 05:57:03;;;;;;;1.20;1.10;;;18.00;68.00;;;;;;4855554;29;20496;-84
2023/08/07 05:59:34;;;;;;;1.30;1.20;;;17.90;68.20;;;;;;4853198;29;20508;-84
2023/08/07 06:02:03;;;;;;;3.13;1.17;;;18.00;68.10;;;;;;4850663;29;20464;-85
2023/08/07 06:04:32;;;;;;;1.30;1.20;;;18.00;68.30;;;;;;4866407;29;20849;-83
2023/08/07 06:07:00;;;;;;;1.93;1.83;;;18.10;68.20;;;;;;4856098;29;20480;-85
2023/08/07 06:09:29;;;;;;;4.03;1.60;;;18.10;68.40;;;;;;4851944;29;20956;-83
2023/08/07 06:11:57;;;;;;;4.27;1.50;;;18.20;68.40;;;;;;4855830;29;20452;-83
2023/08/07 06:14:26;;;;;;;2.40;1.33;;;18.30;68.20;;;;;;4855036;29;20551;-84
2023/08/07 06:16:57;;;;;;;1.30;1.20;;;18.50;67.70;;;;;;4857973;29;20472;-83
2023/08/07 06:19:27;;;;;;;2.00;1.40;;;18.50;67.90;;;;;;4858623;29;21045;-83
2023/08/07 06:21:59;;;;;;;2.27;1.40;;;18.50;67.80;;;;;;4859733;29;20524;-84
2023/08/07 06:24:30;;;;;;;2.50;1.57;;;18.50;67.70;;;;;;4858685;29;20467;-83
2023/08/07 06:26:58;;;;;;;2.90;1.53;;;18.40;67.90;;;;;;4859903;29;20571;-84
2023/08/07 06:29:26;;;;;;;1.53;1.40;;;18.50;67.90;;;;;;4858789;29;20514;-83
2023/08/07 06:31:54;;;;;;;2.93;1.60;;;18.60;67.10;;;;;;4859151;29;20998;-84
2023/08/07 06:34:23;;;;;;;1.37;1.00;;;18.60;67.30;;;;;;4858924;29;20471;-83
2023/08/07 06:36:51;;;;;;;1.40;1.30;;;18.60;66.80;;;;;;4858946;29;20453;-84
2023/08/07 06:39:19;;;;;;;2.53;1.20;;;18.70;66.70;;;;;;4859175;29;20453;-84
2023/08/07 06:41:49;;;;;;;1.50;1.10;;;18.80;66.60;;;;;;4860156;29;20456;-83
2023/08/07 06:44:21;;;;;;;1.17;1.17;;;18.80;66.50;;;;;;4859985;29;20484;-84
2023/08/07 06:46:49;;;;;;;2.07;1.50;;;18.90;66.30;;;;;;4856288;29;20876;-85
2023/08/07 06:49:17;;;;;;;2.30;1.43;;;19.00;65.50;;;;;;4857898;29;20492;-88
2023/08/07 06:51:45;;;;;;;2.87;1.40;;;19.00;65.70;;;;;;4860013;29;20460;-85
2023/08/07 06:54:13;;;;;;;1.73;1.20;;;19.00;66.50;;;;;;4856433;29;21013;-85
2023/08/07 06:56:43;;;;;;;5.33;1.30;;;19.10;66.50;;;;;;4857507;29;20474;-82
2023/08/07 06:59:12;;;;;;;2.00;1.47;;;19.10;68.00;;;;;;4860084;29;20869;-83
2023/08/07 07:01:40;;;;;;;6.50;1.83;;;19.40;69.10;;;;;;4856261;29;20862;-84
2023/08/07 07:04:08;;;;;;;5.27;1.60;;;19.80;68.30;;;;;;4855237;29;20484;-82
2023/08/07 07:06:38;;;;;;;2.93;1.40;;;20.10;67.70;;;;;;4857315;29;20528;-84
2023/08/07 07:09:06;;;;;;;2.93;1.60;;;20.40;67.10;;;;;;4856437;29;21037;-82
2023/08/07 07:11:35;;;;;;;1.53;1.43;;;20.70;66.80;;;;;;4856937;29;20465;-82
2023/08/07 07:14:03;;;;;;;3.50;1.57;;;20.90;66.50;;;;;;4856892;29;20466;-82
2023/08/07 07:16:32;;;;;;;5.93;1.70;;;21.10;66.10;;;;;;4856105;29;20507;-83
2023/08/07 07:19:01;;;;;;;4.17;1.20;;;21.30;65.90;;;;;;4856372;29;20557;-83
2023/08/07 07:21:29;;;;;;;2.80;1.70;;;21.50;65.70;;;;;;4855899;29;20489;-84
2023/08/07 07:23:57;;;;;;;2.53;1.70;;;21.60;65.50;;;;;;4852846;29;20534;-83
2023/08/07 07:26:25;;;;;;;3.77;1.50;;;21.70;65.20;;;;;;4858351;29;20495;-83
2023/08/07 07:28:53;;;;;;;2.77;1.37;;;21.80;65.00;;;;;;4857439;29;20460;-82
2023/08/07 07:31:22;;;;;;;2.50;1.40;;;21.90;65.00;;;;;;4856848;29;20998;-82
2023/08/07 07:33:52;;;;;;;4.43;1.47;;;22.00;64.90;;;;;;4857380;29;20895;-84
2023/08/07 07:36:20;;;;;;;4.20;1.30;;;22.00;64.80;;;;;;4857630;29;20578;-82
2023/08/07 07:38:49;;;;;;;2.20;0.97;;;22.10;64.80;;;;;;4867974;29;20464;-82
2023/08/07 07:41:18;;;;;;;1.53;1.40;;;22.10;64.70;;;;;;4858332;29;20471;-83
2023/08/07 07:43:47;;;;;;;6.10;1.80;;;22.10;64.70;;;;;;4857154;29;20975;-82
2023/08/07 07:46:16;;;;;;;1.77;1.53;;;22.20;64.60;;;;;;4856743;29;20483;-82
2023/08/07 07:48:44;;;;;;;2.93;1.23;;;22.20;64.60;;;;;;4857519;29;20460;-82
2023/08/07 07:51:13;;;;;;;1.70;1.20;;;22.20;64.60;;;;;;4858600;29;20973;-84
2023/08/07 07:53:42;;;;;;;3.23;1.60;;;22.30;64.50;;;;;;4857545;29;20481;-84
2023/08/07 07:56:10;;;;;;;3.40;1.70;;;22.30;64.60;;;;;;4858886;29;20489;-82
2023/08/07 07:58:40;;;;;;;4.50;1.57;;;22.30;64.50;;;;;;4856933;29;20519;-83
2023/08/07 08:01:09;;;;;;;1.70;1.43;;;22.40;64.50;;;;;;4857674;29;20467;-83
2023/08/07 08:03:37;;;;;;;3.33;1.10;;;22.40;64.30;;;;;;4856690;29;20562;-83
2023/08/07 08:06:05;;;;;;;1.43;1.13;;;22.40;64.30;;;;;;4857650;29;20479;-82
2023/08/07 08:08:35;;;;;;;3.40;1.37;;;22.40;64.30;;;;;;4856648;29;20807;-82
2023/08/07 08:11:03;;;;;;;1.90;1.50;;;22.50;64.30;;;;;;4857864;29;20484;-82
2023/08/07 08:13:31;;;;;;;1.30;1.10;;;22.50;64.40;;;;;;4857194;29;20480;-83
2023/08/07 08:15:59;;;;;;;2.23;1.50;;;22.50;64.40;;;;;;4858451;29;20455;-83
2023/08/07 08:18:27;;;;;;;2.00;1.33;;;22.50;64.30;;;;;;4858010;29;20460;-82
2023/08/07 08:20:56;;;;;;;1.83;1.50;;;22.50;64.40;;;;;;4858460;29;20447;-82
2023/08/07 08:23:24;;;;;;;1.27;1.10;;;22.60;64.30;;;;;;4857267;29;20454;-83
2023/08/07 08:25:53;;;;;;;2.43;1.60;;;22.60;64.30;;;;;;4857322;29;20575;-83
2023/08/07 08:28:22;;;;;;;1.47;1.37;;;22.60;64.20;;;;;;4854774;29;20460;-84
2023/08/07 08:30:52;;;;;;;3.73;1.47;;;22.60;64.20;;;;;;4858452;29;21027;-83
2023/08/07 08:33:20;;;;;;;3.43;1.10;;;22.60;64.10;;;;;;4857668;29;20456;-83
2023/08/07 08:35:49;;;;;;;4.03;1.60;;;22.70;64.10;;;;;;4857990;29;20849;-83
2023/08/07 08:38:17;;;;;;;2.27;1.10;;;22.70;64.10;;;;;;4857746;29;20467;-83
2023/08/07 08:40:49;;;;;;;1.40;1.10;;;22.70;64.00;;;;;;4855338;29;20508;-83
2023/08/07 08:43:19;;;;;;;2.00;1.50;;;22.80;64.00;;;;;;4857677;29;20461;-83
2023/08/07 08:45:47;;;;;;;1.40;1.20;;;22.70;64.00;;;;;;4858195;29;20484;-82
2023/08/07 08:48:23;;;;;;;2.00;1.30;;;22.80;64.00;;;;;;4858072;29;20445;-83
2023/08/07 08:50:53;;;;;;;2.00;1.30;;;22.80;64.10;;;;;;4859020;29;20455;-83
2023/08/07 08:53:22;;;;;;;2.43;1.20;;;22.80;64.00;;;;;;4857738;29;20460;-84
2023/08/07 08:55:51;;;;;;;1.60;1.37;;;22.80;63.90;;;;;;4858570;29;20546;-86
2023/08/07 08:58:21;;;;;;;1.93;1.40;;;22.80;63.90;;;;;;4854347;29;20453;-83
2023/08/07 09:00:50;;;;;;;3.63;1.30;;;22.80;63.90;;;;;;4857974;29;20552;-83
2023/08/07 09:03:19;;;;;;;1.53;1.30;;;22.80;64.00;;;;;;4856983;29;21767;-83
2023/08/07 09:05:49;;;;;;;3.10;0.90;;;22.90;63.90;;;;;;4858698;29;20560;-83
2023/08/07 09:08:20;;;;;;;1.23;1.10;;;22.90;63.90;;;;;;4856172;29;20469;-85
2023/08/07 09:10:48;;;;;;;1.70;1.20;;;22.90;63.90;;;;;;4854306;29;20464;-83
2023/08/07 09:13:23;;;;;;;3.13;1.37;;;22.90;63.90;;;;;;4857980;29;20556;-83
2023/08/07 09:15:52;;;;;;;0.80;0.80;;;22.90;63.90;;;;;;4857436;29;20551;-84
2023/08/07 09:18:20;;;;;;;1.60;1.20;;;22.90;63.90;;;;;;4857904;29;20472;-84
2023/08/07 09:20:49;;;;;;;2.40;1.50;;;22.90;63.90;;;;;;4858612;29;20448;-83
2023/08/07 09:23:17;;;;;;;4.33;1.53;;;22.90;63.90;;;;;;4860611;29;20456;-83
2023/08/07 09:25:46;;;;;;;2.00;1.23;;;23.00;63.80;;;;;;4856450;29;20535;-83
2023/08/07 09:28:14;;;;;;;1.67;1.40;;;23.00;63.70;;;;;;4860535;29;20456;-85
2023/08/07 09:30:44;;;;;;;2.20;2.10;;;23.00;63.70;;;;;;4860754;29;20519;-84
2023/08/07 09:33:12;;;;;;;4.87;1.60;;;23.00;63.70;;;;;;4861254;29;20463;-84
2023/08/07 09:35:41;;;;;;;2.10;1.07;;;23.00;63.90;;;;;;4861360;29;20485;-85
2023/08/07 09:38:09;;;;;;;2.73;1.40;;;23.00;63.90;;;;;;4860525;29;20503;-85
2023/08/07 09:40:37;;;;;;;1.73;1.33;;;23.10;63.90;;;;;;4860921;29;20492;-83
2023/08/07 09:43:07;;;;;;;2.70;1.50;;;23.10;63.90;;;;;;4860943;29;20988;-83
2023/08/07 09:45:36;;;;;;;1.20;1.10;;;23.10;63.90;;;;;;4860878;29;20483;-83
2023/08/07 09:48:07;;;;;;;1.00;1.00;;;23.10;64.10;;;;;;4863918;29;20932;-83
2023/08/07 09:50:35;;;;;;;3.20;1.00;;;23.10;64.00;;;;;;4857286;29;20481;-84
2023/08/07 09:53:03;;;;;;;1.33;1.20;;;23.10;64.00;;;;;;4858962;29;20539;-83
2023/08/07 09:55:32;;;;;;;2.57;1.30;;;23.10;64.10;;;;;;4857135;29;20471;-83
2023/08/07 09:58:02;;;;;;;2.70;1.27;;;23.10;64.00;;;;;;4860760;29;20448;-83
2023/08/07 10:00:35;;;;;;;4.80;1.30;;;23.10;64.00;;;;;;4856408;29;21077;-85
2023/08/07 10:03:03;;;;;;;2.57;1.17;;;23.10;64.10;;;;;;4849221;29;20471;-84
2023/08/07 10:05:33;;;;;;;2.93;1.10;;;23.10;64.10;;;;;;4854965;29;21012;-83
2023/08/07 10:08:03;;;;;;;1.73;1.40;;;23.10;64.20;;;;;;4855832;29;20464;-88
2023/08/07 10:10:33;;;;;;;3.63;1.63;;;23.10;64.20;;;;;;4856396;29;21035;-84
2023/08/07 10:13:02;;;;;;;2.03;1.10;;;23.10;64.10;;;;;;4854583;29;20482;-84
2023/08/07 10:15:31;;;;;;;3.90;1.23;;;23.10;64.10;;;;;;4855504;29;20560;-85
2023/08/07 10:18:00;;;;;;;9.00;1.80;;;23.10;64.00;;;;;;4857818;29;20469;-85
2023/08/07 10:20:30;;;;;;;2.13;1.13;;;23.20;63.90;;;;;;4852684;29;20473;-84
2023/08/07 10:23:07;;;;;;;1.70;1.57;;;23.20;63.90;;;;;;4851496;29;21031;-84
2023/08/07 10:25:38;;;;;;;3.13;1.43;;;23.20;63.90;;;;;;4855924;29;20500;-84
2023/08/07 10:28:09;;;;;;;1.77;1.17;;;23.30;63.80;;;;;;4854840;29;20485;-83
2023/08/07 10:30:37;;;;;;;1.50;1.30;;;23.30;63.80;;;;;;4855932;29;21024;-84
2023/08/07 10:33:06;;;;;;;2.83;1.07;;;23.30;63.90;;;;;;4858192;29;20544;-84
2023/08/07 10:35:35;;;;;;;1.10;1.00;;;23.30;63.70;;;;;;4854564;29;20474;-86
2023/08/07 10:38:09;;;;;;;1.10;1.03;;;23.30;63.70;;;;;;4859092;29;20457;-84
2023/08/07 10:40:59;;;;;;;3.57;1.50;;;23.40;63.70;;;;;;4853514;29;20480;-84
2023/08/07 10:43:28;;;;;;;2.27;0.90;;;23.40;63.70;;;;;;4856125;29;20467;-85
2023/08/07 10:46:04;;;;;;;8.80;1.80;;;23.50;63.60;;;;;;4857706;29;20482;-85
2023/08/07 10:48:39;;;;;;;3.50;1.40;;;23.50;63.60;;;;;;4870620;29;21065;-86
2023/08/07 10:51:08;;;;;;;2.00;1.30;;;23.50;63.60;;;;;;4859178;29;20469;-83
2023/08/07 10:53:42;;;;;;;5.50;1.53;;;23.60;63.40;;;;;;4856958;29;20869;-84
2023/08/07 10:56:12;;;;;;;0.80;0.80;;;23.60;63.30;;;;;;4856347;29;21051;-87
2023/08/07 10:58:42;;;;;;;3.03;1.30;;;23.60;63.20;;;;;;4855730;29;20478;-86
2023/08/07 11:01:21;;;;;;;3.43;1.60;;;23.60;63.30;;;;;;4854075;29;20581;-84
2023/08/07 11:03:51;;;;;;;4.33;1.30;;;23.60;63.40;;;;;;4856979;29;20465;-84
2023/08/07 11:06:23;;;;;;;1.60;1.13;;;23.60;63.30;;;;;;4856811;29;20487;-86
2023/08/07 11:08:53;;;;;;;1.70;1.17;;;23.60;63.30;;;;;;4855183;29;20474;-85
2023/08/07 11:11:22;;;;;;;5.50;1.70;;;23.60;63.30;;;;;;4857434;29;20473;-84
2023/08/07 11:13:50;;;;;;;2.73;1.40;;;23.60;63.40;;;;;;4856560;29;20461;-84
2023/08/07 11:16:20;;;;;;;1.53;1.30;;;23.60;63.50;;;;;;4856313;29;20471;-83
2023/08/07 11:18:50;;;;;;;2.13;0.90;;;23.60;63.50;;;;;;4850838;29;20467;-85
2023/08/07 11:21:20;;;;;;;6.90;1.67;;;23.60;63.40;;;;;;4859489;29;20508;-85
2023/08/07 11:23:49;;;;;;;2.23;1.10;;;23.60;63.50;;;;;;4848359;29;20470;-84
2023/08/07 11:26:21;;;;;;;4.57;1.50;;;23.60;63.50;;;;;;4856759;29;20763;-85
2023/08/07 11:28:50;;;;;;;1.53;1.23;;;23.60;63.40;;;;;;4858055;29;20525;-85
2023/08/07 11:31:18;;;;;;;1.80;1.70;;;23.70;63.30;;;;;;4851673;29;20482;-85
2023/08/07 11:33:47;;;;;;;1.40;1.30;;;23.70;63.20;;;;;;4849166;29;20506;-85
2023/08/07 11:36:15;;;;;;;1.63;1.37;;;23.70;63.00;;;;;;4852449;29;20456;-85
2023/08/07 11:38:45;;;;;;;1.20;0.90;;;23.70;63.00;;;;;;4852306;29;20471;-87
2023/08/07 11:41:14;;;;;;;1.37;1.27;;;23.70;63.00;;;;;;4853685;29;20516;-86
2023/08/07 11:43:45;;;;;;;1.53;1.23;;;23.70;62.90;;;;;;4843871;29;20470;-84
2023/08/07 11:46:14;;;;;;;6.23;1.70;;;23.80;63.10;;;;;;4850202;29;20493;-84
2023/08/07 11:48:44;;;;;;;1.57;1.20;;;23.80;63.10;;;;;;4850094;29;20461;-84
2023/08/07 11:54:58;;;;;;;1.50;1.33;;;23.80;63.30;;;;;;4844917;29;20476;-84
2023/08/07 11:57:27;;;;;;;6.50;1.90;;;23.80;63.20;;;;;;4848132;29;20458;-84
2023/08/07 11:59:56;;;;;;;4.10;2.37;;;23.80;63.20;;;;;;4849548;29;20498;-86
2023/08/07 12:02:26;;;;;;;5.60;2.93;;;23.80;63.20;;;;;;4853299;29;20472;-86
2023/08/07 12:04:59;;;;;;;5.30;1.80;;;23.80;63.20;;;;;;4851199;29;20478;-84
2023/08/07 12:07:29;;;;;;;1.83;1.73;;;23.80;63.40;;;;;;4857095;29;20551;-87
2023/08/07 12:10:04;;;;;;;5.00;2.07;;;23.80;63.40;;;;;;4860348;29;20463;-85
2023/08/07 12:12:35;;;;;;;3.73;2.20;;;23.80;63.40;;;;;;4856637;29;20468;-84
2023/08/07 12:15:07;;;;;;;3.90;2.33;;;23.80;63.40;;;;;;4855400;29;20519;-82
2023/08/07 12:17:36;;;;;;;3.10;1.60;;;23.80;63.40;;;;;;4853556;29;20526;-82
2023/08/07 12:20:07;;;;;;;7.37;1.63;;;23.80;63.50;;;;;;4860194;29;20476;-85
2023/08/07 12:22:37;;;;;;;4.70;2.33;;;23.80;63.50;;;;;;4855239;29;21054;-82
2023/08/07 12:25:06;;;;;;;3.27;1.40;;;23.90;63.50;;;;;;4859298;29;20473;-82
2023/08/07 12:27:34;;;;;;;1.60;1.50;;;23.90;63.50;;;;;;4855332;29;20509;-84
2023/08/07 12:30:04;;;;;;;2.53;1.70;;;23.90;63.30;;;;;;4857096;29;20974;-83
2023/08/07 12:32:32;;;;;;;2.53;1.77;;;23.90;63.30;;;;;;4859048;29;20478;-83
2023/08/07 12:35:01;;;;;;;2.00;1.80;;;23.90;63.40;;;;;;4857194;29;20470;-82
2023/08/07 12:37:32;;;;;;;4.10;2.20;;;23.90;63.40;;;;;;4865137;29;20578;-82
2023/08/07 12:40:00;;;;;;;2.73;1.30;;;23.80;63.50;;;;;;4855982;29;20477;-84
2023/08/07 12:42:31;;;;;;;1.60;1.50;;;23.80;63.50;;;;;;4861426;29;20466;-84
2023/08/07 12:45:00;;;;;;;2.67;1.87;;;23.80;63.70;;;;;;4855556;29;21017;-83
2023/08/07 12:47:29;;;;;;;4.03;1.60;;;23.80;63.70;;;;;;4858189;29;20890;-84
2023/08/07 12:49:59;;;;;;;2.90;1.67;;;23.80;63.80;;;;;;4858578;29;20452;-85
2023/08/07 12:52:28;;;;;;;2.90;1.70;;;23.80;63.80;;;;;;4858971;29;20458;-84
2023/08/07 12:54:56;;;;;;;2.30;1.80;;;23.80;63.80;;;;;;4859387;29;20945;-84
2023/08/07 12:57:24;;;;;;;2.70;1.33;;;23.90;63.70;;;;;;4862923;29;20477;-86
2023/08/07 12:59:54;;;;;;;1.67;1.40;;;23.80;63.80;;;;;;4861910;29;20476;-86
2023/08/07 13:02:23;;;;;;;3.33;1.80;;;23.90;63.80;;;;;;4864081;29;20477;-83